Airfield :
LOGIN :

Register | Disclaimer

   EN    FR    IT 

 










Legend :    VFR   Marginal VFR   IFR   Intensive IFR   Very Intensive IFR
Visi :
Ceiling :
>= 8 km
>= 3000ft
5 to 8 km
1000 to 3000 ft
1500m to 5 km
500 to 1000 ft
800 to 1500m
200 to 500 ft
< 800m
< 200 ft
Symbols :   Thunderstorms  Fog  Heavy snow  Heavy precipitations  Wind > 20 kt
SIGMETs :     Misc.  Thunderstorms  Icing  Turbulence  Mountain Waves  Volcanic Ashes






- Airport Elevation : 41 ft


LIRE - Pratica di Mare Air Base Pomezia

CURRENT METAR :
  • 261055Z 26016KT 9999 SCT020 13/09 Q1004 RMK BKN SCT100 VIS MIN 9999 WIND THR13 27013KT WIND THR31 26018KT BLU

EXPIRED METARs :
  • 260955Z 28007KT 9999 FEW030 14/10 Q1004 RMK BKN BKN100 VIS MIN 9999 WIND THR13 29008KT WIND THR31 28007KT BLU
  • 260855Z 22004KT 9999 FEW030 13/10 Q1005 RMK BKN BKN100 VIS MIN 9999 WIND THR13 26004KT WIND THR31 25004KT BLU

TAF TAF LIRE
Valid from the 26 at 09:00 until the 26 at 18:00 UTC


260800Z 2609/2618 26012KT SCT020 BKN030
TEMPO 2613/2616 5000 RA
BECMG 2614/2618 27018G28KT



MET'MAP, your aeronautical weather chart ! - Copyright ORBIFLY December 2007 - Disclaimer

ORBIFLY MET'MAP TEAM :

Programming & Development : Alexandra Zaïnal
Concept & original design : Baudouin d'Aumeries
Assistance for programming : Marc-Olivier Méhu
Technical & hardware support : Manuel Goepfert

Contact : metmap@orbifly.com




SOURCES & CREDITS :

   NOAA